Terminal Aerodrome Forecast
Issued by NWS

Home | Current Version | Previous Version | Text Only | Print | Product List | Glossary On
Versions: 1 2 3 4 5 6 7 8 9 10 11 12 13
000
FTUS42 KMHX 051725
TAFPGV
TAF
KPGV 051725Z 0518/0618 20007KT P6SM SCT250
     FM060000 20005KT P6SM SKC
     FM060900 00000KT 4SM BR SKC
     FM061100 VRB02KT P6SM SCT250
     FM061500 14004KT P6SM SCT250
      AMD LTD TO CLD VIS AND WIND=

USA.gov is the U.S. government's official web portal to all federal, state and local government web resources and services.